sensor_id;sensor_type;location;lat;lon;timestamp;temperature;humidity
20066;DHT22;10193;48.884;9.182;2023-01-13T00:01:36;12.40;68.30
20066;DHT22;10193;48.884;9.182;2023-01-13T00:04:04;12.40;68.50
20066;DHT22;10193;48.884;9.182;2023-01-13T00:06:30;12.40;68.30
20066;DHT22;10193;48.884;9.182;2023-01-13T00:08:58;12.40;68.30
20066;DHT22;10193;48.884;9.182;2023-01-13T00:11:25;12.40;68.30
20066;DHT22;10193;48.884;9.182;2023-01-13T00:13:52;12.40;68.40
20066;DHT22;10193;48.884;9.182;2023-01-13T00:16:19;12.40;68.50
20066;DHT22;10193;48.884;9.182;2023-01-13T00:18:47;12.40;68.30
20066;DHT22;10193;48.884;9.182;2023-01-13T00:21:17;12.40;68.40
20066;DHT22;10193;48.884;9.182;2023-01-13T00:23:44;12.40;68.20
20066;DHT22;10193;48.884;9.182;2023-01-13T00:26:14;12.40;68.20
20066;DHT22;10193;48.884;9.182;2023-01-13T00:28:41;12.40;68.10
20066;DHT22;10193;48.884;9.182;2023-01-13T00:31:10;12.40;68.10
20066;DHT22;10193;48.884;9.182;2023-01-13T00:33:37;12.40;69.00
20066;DHT22;10193;48.884;9.182;2023-01-13T00:36:05;12.30;68.00
20066;DHT22;10193;48.884;9.182;2023-01-13T00:38:33;12.30;68.10
20066;DHT22;10193;48.884;9.182;2023-01-13T00:41:02;12.30;68.10
20066;DHT22;10193;48.884;9.182;2023-01-13T00:43:33;12.40;68.30
20066;DHT22;10193;48.884;9.182;2023-01-13T00:45:59;12.30;68.30
20066;DHT22;10193;48.884;9.182;2023-01-13T00:48:27;12.30;68.40
20066;DHT22;10193;48.884;9.182;2023-01-13T00:50:54;12.30;68.70
20066;DHT22;10193;48.884;9.182;2023-01-13T00:53:21;12.30;68.50
20066;DHT22;10193;48.884;9.182;2023-01-13T00:55:48;12.30;68.50
20066;DHT22;10193;48.884;9.182;2023-01-13T00:58:15;12.40;68.60
20066;DHT22;10193;48.884;9.182;2023-01-13T01:00:43;12.40;68.60
20066;DHT22;10193;48.884;9.182;2023-01-13T01:03:10;12.40;68.60
20066;DHT22;10193;48.884;9.182;2023-01-13T01:05:37;12.40;68.40
20066;DHT22;10193;48.884;9.182;2023-01-13T01:08:04;12.40;68.40
20066;DHT22;10193;48.884;9.182;2023-01-13T01:10:30;12.50;68.50
20066;DHT22;10193;48.884;9.182;2023-01-13T01:12:57;12.50;68.70
20066;DHT22;10193;48.884;9.182;2023-01-13T01:15:24;12.50;68.60
20066;DHT22;10193;48.884;9.182;2023-01-13T01:17:52;12.50;68.40
20066;DHT22;10193;48.884;9.182;2023-01-13T01:20:19;12.50;68.30
20066;DHT22;10193;48.884;9.182;2023-01-13T01:22:46;12.50;68.30
20066;DHT22;10193;48.884;9.182;2023-01-13T01:25:12;12.50;68.30
20066;DHT22;10193;48.884;9.182;2023-01-13T01:27:39;12.60;68.50
20066;DHT22;10193;48.884;9.182;2023-01-13T01:30:07;12.60;68.40
20066;DHT22;10193;48.884;9.182;2023-01-13T01:32:34;12.60;68.20
20066;DHT22;10193;48.884;9.182;2023-01-13T01:35:02;12.60;68.20
20066;DHT22;10193;48.884;9.182;2023-01-13T01:37:29;12.60;68.20
20066;DHT22;10193;48.884;9.182;2023-01-13T01:39:55;12.60;68.90
20066;DHT22;10193;48.884;9.182;2023-01-13T01:42:22;12.70;68.20
20066;DHT22;10193;48.884;9.182;2023-01-13T01:45:13;12.70;68.10
20066;DHT22;10193;48.884;9.182;2023-01-13T01:47:41;12.70;67.90
20066;DHT22;10193;48.884;9.182;2023-01-13T01:50:10;12.70;68.10
20066;DHT22;10193;48.884;9.182;2023-01-13T01:52:39;12.70;68.30
20066;DHT22;10193;48.884;9.182;2023-01-13T01:55:09;12.70;68.00
20066;DHT22;10193;48.884;9.182;2023-01-13T01:57:42;12.70;68.00
20066;DHT22;10193;48.884;9.182;2023-01-13T02:00:12;12.70;67.80
20066;DHT22;10193;48.884;9.182;2023-01-13T02:02:39;12.70;67.80
20066;DHT22;10193;48.884;9.182;2023-01-13T02:05:07;12.70;68.60
20066;DHT22;10193;48.884;9.182;2023-01-13T02:07:38;12.70;67.80
20066;DHT22;10193;48.884;9.182;2023-01-13T02:10:08;12.70;68.00
20066;DHT22;10193;48.884;9.182;2023-01-13T02:12:35;12.70;68.00
20066;DHT22;10193;48.884;9.182;2023-01-13T02:15:05;12.70;68.00
20066;DHT22;10193;48.884;9.182;2023-01-13T02:17:45;12.70;68.00
20066;DHT22;10193;48.884;9.182;2023-01-13T02:20:43;12.70;67.80
20066;DHT22;10193;48.884;9.182;2023-01-13T02:23:32;12.70;67.50
20066;DHT22;10193;48.884;9.182;2023-01-13T02:26:45;12.70;67.90
20066;DHT22;10193;48.884;9.182;2023-01-13T02:29:30;12.70;68.00
20066;DHT22;10193;48.884;9.182;2023-01-13T02:32:26;12.70;67.80
20066;DHT22;10193;48.884;9.182;2023-01-13T02:34:59;12.70;68.20
20066;DHT22;10193;48.884;9.182;2023-01-13T02:37:31;12.70;68.10
20066;DHT22;10193;48.884;9.182;2023-01-13T02:40:00;12.70;68.10
20066;DHT22;10193;48.884;9.182;2023-01-13T02:42:31;12.70;68.30
20066;DHT22;10193;48.884;9.182;2023-01-13T02:45:20;12.70;68.30
20066;DHT22;10193;48.884;9.182;2023-01-13T02:47:50;12.70;68.00
20066;DHT22;10193;48.884;9.182;2023-01-13T02:50:24;12.70;68.00
20066;DHT22;10193;48.884;9.182;2023-01-13T02:52:56;12.70;68.10
20066;DHT22;10193;48.884;9.182;2023-01-13T02:55:27;12.70;68.00
20066;DHT22;10193;48.884;9.182;2023-01-13T02:57:57;12.70;68.00
20066;DHT22;10193;48.884;9.182;2023-01-13T03:00:27;12.70;68.00
20066;DHT22;10193;48.884;9.182;2023-01-13T03:02:55;12.70;68.10
20066;DHT22;10193;48.884;9.182;2023-01-13T03:05:22;12.70;68.10
20066;DHT22;10193;48.884;9.182;2023-01-13T03:08:15;12.70;68.10
20066;DHT22;10193;48.884;9.182;2023-01-13T03:11:01;12.60;67.70
20066;DHT22;10193;48.884;9.182;2023-01-13T03:13:57;12.60;68.00
20066;DHT22;10193;48.884;9.182;2023-01-13T03:16:35;12.60;67.60
20066;DHT22;10193;48.884;9.182;2023-01-13T03:19:20;12.60;68.00
20066;DHT22;10193;48.884;9.182;2023-01-13T03:21:53;12.60;67.80
20066;DHT22;10193;48.884;9.182;2023-01-13T03:24:25;12.60;68.10
20066;DHT22;10193;48.884;9.182;2023-01-13T03:26:59;12.60;68.10
20066;DHT22;10193;48.884;9.182;2023-01-13T03:29:31;12.60;68.10
20066;DHT22;10193;48.884;9.182;2023-01-13T03:32:05;12.60;68.00
20066;DHT22;10193;48.884;9.182;2023-01-13T03:34:35;12.60;68.10
20066;DHT22;10193;48.884;9.182;2023-01-13T03:37:06;12.60;68.20
20066;DHT22;10193;48.884;9.182;2023-01-13T03:39:36;12.60;68.20
20066;DHT22;10193;48.884;9.182;2023-01-13T03:42:08;12.60;68.10
20066;DHT22;10193;48.884;9.182;2023-01-13T03:44:40;12.60;68.10
20066;DHT22;10193;48.884;9.182;2023-01-13T03:47:13;12.60;68.10
20066;DHT22;10193;48.884;9.182;2023-01-13T03:49:45;12.60;68.00
20066;DHT22;10193;48.884;9.182;2023-01-13T03:52:16;12.60;68.10
20066;DHT22;10193;48.884;9.182;2023-01-13T03:54:48;12.60;68.10
20066;DHT22;10193;48.884;9.182;2023-01-13T03:57:19;12.60;68.10
20066;DHT22;10193;48.884;9.182;2023-01-13T03:59:49;12.60;68.20
20066;DHT22;10193;48.884;9.182;2023-01-13T04:02:28;12.60;68.30
20066;DHT22;10193;48.884;9.182;2023-01-13T04:04:58;12.60;68.00
20066;DHT22;10193;48.884;9.182;2023-01-13T04:07:32;12.60;68.20
20066;DHT22;10193;48.884;9.182;2023-01-13T04:10:05;12.50;68.00
20066;DHT22;10193;48.884;9.182;2023-01-13T04:12:35;12.50;68.00
20066;DHT22;10193;48.884;9.182;2023-01-13T04:15:19;12.50;68.00
20066;DHT22;10193;48.884;9.182;2023-01-13T04:17:48;12.50;67.80
20066;DHT22;10193;48.884;9.182;2023-01-13T04:20:16;12.50;67.90
20066;DHT22;10193;48.884;9.182;2023-01-13T04:22:43;12.50;68.00
20066;DHT22;10193;48.884;9.182;2023-01-13T04:25:10;12.50;68.10
20066;DHT22;10193;48.884;9.182;2023-01-13T04:27:36;12.50;68.20
20066;DHT22;10193;48.884;9.182;2023-01-13T04:30:04;12.50;68.40
20066;DHT22;10193;48.884;9.182;2023-01-13T04:32:31;12.50;68.30
20066;DHT22;10193;48.884;9.182;2023-01-13T04:34:59;12.50;68.40
20066;DHT22;10193;48.884;9.182;2023-01-13T04:37:26;12.50;68.30
20066;DHT22;10193;48.884;9.182;2023-01-13T04:39:52;12.50;68.40
20066;DHT22;10193;48.884;9.182;2023-01-13T04:42:19;12.60;68.50
20066;DHT22;10193;48.884;9.182;2023-01-13T04:44:46;12.60;68.50
20066;DHT22;10193;48.884;9.182;2023-01-13T04:47:12;12.60;68.50
20066;DHT22;10193;48.884;9.182;2023-01-13T04:49:39;12.60;68.40
20066;DHT22;10193;48.884;9.182;2023-01-13T04:52:07;12.60;68.40
20066;DHT22;10193;48.884;9.182;2023-01-13T04:54:33;12.60;68.20
20066;DHT22;10193;48.884;9.182;2023-01-13T04:57:00;12.70;68.30
20066;DHT22;10193;48.884;9.182;2023-01-13T04:59:27;12.70;68.30
20066;DHT22;10193;48.884;9.182;2023-01-13T05:01:53;12.70;68.20
20066;DHT22;10193;48.884;9.182;2023-01-13T05:04:20;12.70;68.20
20066;DHT22;10193;48.884;9.182;2023-01-13T05:06:47;12.70;68.90
20066;DHT22;10193;48.884;9.182;2023-01-13T05:09:15;12.70;68.10
20066;DHT22;10193;48.884;9.182;2023-01-13T05:11:41;12.80;68.20
20066;DHT22;10193;48.884;9.182;2023-01-13T05:14:26;12.70;68.20
20066;DHT22;10193;48.884;9.182;2023-01-13T05:17:19;12.80;68.30
20066;DHT22;10193;48.884;9.182;2023-01-13T05:19:46;12.80;68.00
20066;DHT22;10193;48.884;9.182;2023-01-13T05:22:13;12.80;68.10
20066;DHT22;10193;48.884;9.182;2023-01-13T05:24:59;12.80;68.00
20066;DHT22;10193;48.884;9.182;2023-01-13T05:27:43;12.80;68.00
20066;DHT22;10193;48.884;9.182;2023-01-13T05:30:10;12.80;67.90
20066;DHT22;10193;48.884;9.182;2023-01-13T05:32:37;12.80;67.90
20066;DHT22;10193;48.884;9.182;2023-01-13T05:35:04;12.80;67.90
20066;DHT22;10193;48.884;9.182;2023-01-13T05:37:30;12.90;68.10
20066;DHT22;10193;48.884;9.182;2023-01-13T05:39:58;12.90;68.10
20066;DHT22;10193;48.884;9.182;2023-01-13T05:42:43;12.90;68.00
20066;DHT22;10193;48.884;9.182;2023-01-13T05:45:29;12.90;68.00
20066;DHT22;10193;48.884;9.182;2023-01-13T05:47:56;12.80;67.70
20066;DHT22;10193;48.884;9.182;2023-01-13T05:50:22;12.90;67.80
20066;DHT22;10193;48.884;9.182;2023-01-13T05:52:49;12.90;67.60
20066;DHT22;10193;48.884;9.182;2023-01-13T05:55:17;12.90;67.60
20066;DHT22;10193;48.884;9.182;2023-01-13T05:57:43;12.90;67.60
20066;DHT22;10193;48.884;9.182;2023-01-13T06:00:11;12.90;67.70
20066;DHT22;10193;48.884;9.182;2023-01-13T06:02:38;12.90;67.70
20066;DHT22;10193;48.884;9.182;2023-01-13T06:05:05;12.90;67.60
20066;DHT22;10193;48.884;9.182;2023-01-13T06:07:32;12.90;67.60
20066;DHT22;10193;48.884;9.182;2023-01-13T06:09:58;12.90;67.70
20066;DHT22;10193;48.884;9.182;2023-01-13T06:12:26;12.90;67.70
20066;DHT22;10193;48.884;9.182;2023-01-13T06:14:53;12.90;67.70
20066;DHT22;10193;48.884;9.182;2023-01-13T06:17:20;12.90;67.70
20066;DHT22;10193;48.884;9.182;2023-01-13T06:19:46;12.90;67.70
20066;DHT22;10193;48.884;9.182;2023-01-13T06:22:16;12.90;67.60
20066;DHT22;10193;48.884;9.182;2023-01-13T06:24:44;12.90;67.60
20066;DHT22;10193;48.884;9.182;2023-01-13T06:27:11;12.90;67.70
20066;DHT22;10193;48.884;9.182;2023-01-13T06:29:40;12.90;67.70
20066;DHT22;10193;48.884;9.182;2023-01-13T06:32:11;12.90;67.70
20066;DHT22;10193;48.884;9.182;2023-01-13T06:34:40;12.90;67.60
20066;DHT22;10193;48.884;9.182;2023-01-13T06:37:11;12.90;67.80
20066;DHT22;10193;48.884;9.182;2023-01-13T06:39:38;12.90;67.80
20066;DHT22;10193;48.884;9.182;2023-01-13T06:42:05;12.90;67.80
20066;DHT22;10193;48.884;9.182;2023-01-13T06:44:52;12.90;67.80
20066;DHT22;10193;48.884;9.182;2023-01-13T06:47:19;12.90;67.80
20066;DHT22;10193;48.884;9.182;2023-01-13T06:49:46;12.90;67.80
20066;DHT22;10193;48.884;9.182;2023-01-13T06:52:13;13.00;67.80
20066;DHT22;10193;48.884;9.182;2023-01-13T06:54:40;13.00;67.80
20066;DHT22;10193;48.884;9.182;2023-01-13T06:57:07;13.00;67.60
20066;DHT22;10193;48.884;9.182;2023-01-13T06:59:33;13.00;67.50
20066;DHT22;10193;48.884;9.182;2023-01-13T07:02:02;12.90;67.40
20066;DHT22;10193;48.884;9.182;2023-01-13T07:04:28;12.90;67.30
20066;DHT22;10193;48.884;9.182;2023-01-13T07:06:55;12.90;67.40
20066;DHT22;10193;48.884;9.182;2023-01-13T07:09:22;12.90;67.50
20066;DHT22;10193;48.884;9.182;2023-01-13T07:11:49;12.90;67.50
20066;DHT22;10193;48.884;9.182;2023-01-13T07:14:17;12.90;67.40
20066;DHT22;10193;48.884;9.182;2023-01-13T07:17:03;12.80;67.40
20066;DHT22;10193;48.884;9.182;2023-01-13T07:19:29;12.80;67.40
20066;DHT22;10193;48.884;9.182;2023-01-13T07:21:56;12.80;67.60
20066;DHT22;10193;48.884;9.182;2023-01-13T07:24:23;12.80;67.50
20066;DHT22;10193;48.884;9.182;2023-01-13T07:26:50;12.80;67.50
20066;DHT22;10193;48.884;9.182;2023-01-13T07:29:17;12.80;67.50
20066;DHT22;10193;48.884;9.182;2023-01-13T07:31:44;12.80;67.60
20066;DHT22;10193;48.884;9.182;2023-01-13T07:34:12;12.80;67.70
20066;DHT22;10193;48.884;9.182;2023-01-13T07:36:38;12.80;67.60
20066;DHT22;10193;48.884;9.182;2023-01-13T07:39:05;12.80;67.80
20066;DHT22;10193;48.884;9.182;2023-01-13T07:41:31;12.80;67.80
20066;DHT22;10193;48.884;9.182;2023-01-13T07:44:16;12.70;67.70
20066;DHT22;10193;48.884;9.182;2023-01-13T07:46:43;12.70;67.60
20066;DHT22;10193;48.884;9.182;2023-01-13T07:49:09;12.70;67.40
20066;DHT22;10193;48.884;9.182;2023-01-13T07:51:39;12.70;67.60
20066;DHT22;10193;48.884;9.182;2023-01-13T07:54:05;12.70;67.70
20066;DHT22;10193;48.884;9.182;2023-01-13T07:56:32;12.70;67.80
20066;DHT22;10193;48.884;9.182;2023-01-13T07:58:59;12.80;67.90
20066;DHT22;10193;48.884;9.182;2023-01-13T08:01:26;12.80;68.00
20066;DHT22;10193;48.884;9.182;2023-01-13T08:03:53;12.80;68.10
20066;DHT22;10193;48.884;9.182;2023-01-13T08:06:23;12.80;68.10
20066;DHT22;10193;48.884;9.182;2023-01-13T08:08:51;12.80;68.20
20066;DHT22;10193;48.884;9.182;2023-01-13T08:11:18;12.80;68.10
20066;DHT22;10193;48.884;9.182;2023-01-13T08:13:44;12.90;68.30
20066;DHT22;10193;48.884;9.182;2023-01-13T08:16:12;12.90;68.30
20066;DHT22;10193;48.884;9.182;2023-01-13T08:18:39;12.90;68.40
20066;DHT22;10193;48.884;9.182;2023-01-13T08:21:08;12.90;68.50
20066;DHT22;10193;48.884;9.182;2023-01-13T08:23:35;12.90;68.40
20066;DHT22;10193;48.884;9.182;2023-01-13T08:26:05;12.90;68.40
20066;DHT22;10193;48.884;9.182;2023-01-13T08:28:32;12.90;68.40
20066;DHT22;10193;48.884;9.182;2023-01-13T08:30:59;12.90;68.50
20066;DHT22;10193;48.884;9.182;2023-01-13T08:33:26;12.90;68.50
20066;DHT22;10193;48.884;9.182;2023-01-13T08:35:53;12.90;68.60
20066;DHT22;10193;48.884;9.182;2023-01-13T08:38:20;12.80;68.60
20066;DHT22;10193;48.884;9.182;2023-01-13T08:40:47;12.80;68.70
20066;DHT22;10193;48.884;9.182;2023-01-13T08:43:15;12.80;68.80
20066;DHT22;10193;48.884;9.182;2023-01-13T08:45:42;12.70;68.90
20066;DHT22;10193;48.884;9.182;2023-01-13T08:48:09;12.70;69.00
20066;DHT22;10193;48.884;9.182;2023-01-13T08:50:35;12.70;69.20
20066;DHT22;10193;48.884;9.182;2023-01-13T08:53:02;12.70;69.30
20066;DHT22;10193;48.884;9.182;2023-01-13T08:55:29;12.60;69.30
20066;DHT22;10193;48.884;9.182;2023-01-13T08:57:55;12.60;69.30
20066;DHT22;10193;48.884;9.182;2023-01-13T09:00:23;12.60;68.90
20066;DHT22;10193;48.884;9.182;2023-01-13T09:02:50;12.50;68.10
20066;DHT22;10193;48.884;9.182;2023-01-13T09:05:17;12.30;67.20
20066;DHT22;10193;48.884;9.182;2023-01-13T09:07:44;12.10;67.00
20066;DHT22;10193;48.884;9.182;2023-01-13T09:10:10;11.90;67.50
20066;DHT22;10193;48.884;9.182;2023-01-13T09:12:37;11.70;68.00
20066;DHT22;10193;48.884;9.182;2023-01-13T09:15:21;11.50;68.70
20066;DHT22;10193;48.884;9.182;2023-01-13T09:17:49;11.30;69.40
20066;DHT22;10193;48.884;9.182;2023-01-13T09:20:16;11.20;70.20
20066;DHT22;10193;48.884;9.182;2023-01-13T09:22:43;11.10;70.60
20066;DHT22;10193;48.884;9.182;2023-01-13T09:25:10;10.90;70.80
20066;DHT22;10193;48.884;9.182;2023-01-13T09:27:37;10.80;71.60
20066;DHT22;10193;48.884;9.182;2023-01-13T09:30:05;10.80;72.30
20066;DHT22;10193;48.884;9.182;2023-01-13T09:32:32;10.70;72.70
20066;DHT22;10193;48.884;9.182;2023-01-13T09:35:00;10.70;73.00
20066;DHT22;10193;48.884;9.182;2023-01-13T09:37:27;10.60;73.40
20066;DHT22;10193;48.884;9.182;2023-01-13T09:39:54;10.60;74.00
20066;DHT22;10193;48.884;9.182;2023-01-13T09:42:26;10.60;74.60
20066;DHT22;10193;48.884;9.182;2023-01-13T09:45:14;10.60;75.00
20066;DHT22;10193;48.884;9.182;2023-01-13T09:47:46;10.70;75.40
20066;DHT22;10193;48.884;9.182;2023-01-13T09:50:28;10.70;75.50
20066;DHT22;10193;48.884;9.182;2023-01-13T09:52:56;10.80;75.80
20066;DHT22;10193;48.884;9.182;2023-01-13T09:55:29;10.80;75.70
20066;DHT22;10193;48.884;9.182;2023-01-13T09:57:57;10.80;76.60
20066;DHT22;10193;48.884;9.182;2023-01-13T10:00:25;10.90;75.90
20066;DHT22;10193;48.884;9.182;2023-01-13T10:03:14;10.90;75.90
20066;DHT22;10193;48.884;9.182;2023-01-13T10:05:53;10.90;76.00
20066;DHT22;10193;48.884;9.182;2023-01-13T10:08:24;11.00;75.60
20066;DHT22;10193;48.884;9.182;2023-01-13T10:10:54;11.00;75.60
20066;DHT22;10193;48.884;9.182;2023-01-13T10:13:24;11.00;75.70
20066;DHT22;10193;48.884;9.182;2023-01-13T10:16:04;11.10;76.00
20066;DHT22;10193;48.884;9.182;2023-01-13T10:18:41;11.10;75.90
20066;DHT22;10193;48.884;9.182;2023-01-13T10:21:23;11.10;75.90
20066;DHT22;10193;48.884;9.182;2023-01-13T10:23:59;11.10;75.90
20066;DHT22;10193;48.884;9.182;2023-01-13T10:26:43;11.10;76.10
20066;DHT22;10193;48.884;9.182;2023-01-13T10:29:21;11.10;76.50
20066;DHT22;10193;48.884;9.182;2023-01-13T10:31:49;11.10;76.00
20066;DHT22;10193;48.884;9.182;2023-01-13T10:34:16;11.20;76.00
20066;DHT22;10193;48.884;9.182;2023-01-13T10:36:53;11.20;76.20
20066;DHT22;10193;48.884;9.182;2023-01-13T10:39:24;11.20;76.10
20066;DHT22;10193;48.884;9.182;2023-01-13T10:42:00;11.20;76.20
20066;DHT22;10193;48.884;9.182;2023-01-13T10:44:27;11.20;76.40
20066;DHT22;10193;48.884;9.182;2023-01-13T10:46:55;11.30;76.50
20066;DHT22;10193;48.884;9.182;2023-01-13T10:49:27;11.40;76.60
20066;DHT22;10193;48.884;9.182;2023-01-13T10:51:56;11.30;76.60
20066;DHT22;10193;48.884;9.182;2023-01-13T10:54:24;11.30;76.50
20066;DHT22;10193;48.884;9.182;2023-01-13T10:57:14;11.30;76.20
20066;DHT22;10193;48.884;9.182;2023-01-13T10:59:41;11.20;75.70
20066;DHT22;10193;48.884;9.182;2023-01-13T11:02:19;11.20;75.40
20066;DHT22;10193;48.884;9.182;2023-01-13T11:05:11;11.10;75.30
20066;DHT22;10193;48.884;9.182;2023-01-13T11:07:47;11.20;75.50
20066;DHT22;10193;48.884;9.182;2023-01-13T11:10:20;11.00;75.60
20066;DHT22;10193;48.884;9.182;2023-01-13T11:12:52;11.00;76.00
20066;DHT22;10193;48.884;9.182;2023-01-13T11:15:24;11.00;76.30
20066;DHT22;10193;48.884;9.182;2023-01-13T11:18:00;11.00;76.60
20066;DHT22;10193;48.884;9.182;2023-01-13T11:20:32;11.00;76.80
20066;DHT22;10193;48.884;9.182;2023-01-13T11:23:10;11.00;76.80
20066;DHT22;10193;48.884;9.182;2023-01-13T11:25:41;11.00;76.60
20066;DHT22;10193;48.884;9.182;2023-01-13T11:28:22;11.00;76.60
20066;DHT22;10193;48.884;9.182;2023-01-13T11:30:55;10.90;76.60
20066;DHT22;10193;48.884;9.182;2023-01-13T11:33:31;11.00;76.60
20066;DHT22;10193;48.884;9.182;2023-01-13T11:36:05;11.00;76.70
20066;DHT22;10193;48.884;9.182;2023-01-13T11:38:42;11.00;76.90
20066;DHT22;10193;48.884;9.182;2023-01-13T11:41:18;11.00;77.10
20066;DHT22;10193;48.884;9.182;2023-01-13T11:43:50;10.90;77.10
20066;DHT22;10193;48.884;9.182;2023-01-13T11:46:20;10.90;77.30
20066;DHT22;10193;48.884;9.182;2023-01-13T11:48:51;11.00;77.80
20066;DHT22;10193;48.884;9.182;2023-01-13T11:51:27;11.00;77.90
20066;DHT22;10193;48.884;9.182;2023-01-13T11:54:12;11.00;78.00
20066;DHT22;10193;48.884;9.182;2023-01-13T11:56:56;11.00;78.00
20066;DHT22;10193;48.884;9.182;2023-01-13T11:59:48;11.10;78.30
20066;DHT22;10193;48.884;9.182;2023-01-13T12:02:29;11.10;78.60
20066;DHT22;10193;48.884;9.182;2023-01-13T12:05:07;11.20;78.80
20066;DHT22;10193;48.884;9.182;2023-01-13T12:07:39;11.30;79.10
20066;DHT22;10193;48.884;9.182;2023-01-13T12:10:15;11.30;79.10
20066;DHT22;10193;48.884;9.182;2023-01-13T12:12:50;11.50;78.50
20066;DHT22;10193;48.884;9.182;2023-01-13T12:15:27;11.50;78.60
20066;DHT22;10193;48.884;9.182;2023-01-13T12:21:00;11.60;79.20
20066;DHT22;10193;48.884;9.182;2023-01-13T12:23:32;11.70;79.40
20066;DHT22;10193;48.884;9.182;2023-01-13T12:26:07;11.80;79.80
20066;DHT22;10193;48.884;9.182;2023-01-13T12:28:42;11.80;79.80
20066;DHT22;10193;48.884;9.182;2023-01-13T12:31:10;11.90;80.10
20066;DHT22;10193;48.884;9.182;2023-01-13T12:33:56;12.00;80.30
20066;DHT22;10193;48.884;9.182;2023-01-13T12:36:28;12.10;80.30
20066;DHT22;10193;48.884;9.182;2023-01-13T12:39:03;12.10;80.00
20066;DHT22;10193;48.884;9.182;2023-01-13T12:41:41;12.20;80.00
20066;DHT22;10193;48.884;9.182;2023-01-13T12:44:24;12.30;79.40
20066;DHT22;10193;48.884;9.182;2023-01-13T12:46:51;12.30;78.50
20066;DHT22;10193;48.884;9.182;2023-01-13T12:49:30;12.40;77.70
20066;DHT22;10193;48.884;9.182;2023-01-13T12:55:12;12.30;77.30
20066;DHT22;10193;48.884;9.182;2023-01-13T12:57:55;12.30;76.20
20066;DHT22;10193;48.884;9.182;2023-01-13T13:00:22;12.30;76.00
20066;DHT22;10193;48.884;9.182;2023-01-13T13:03:23;12.30;76.50
20066;DHT22;10193;48.884;9.182;2023-01-13T13:06:01;12.20;75.30
20066;DHT22;10193;48.884;9.182;2023-01-13T13:11:35;12.30;74.80
20066;DHT22;10193;48.884;9.182;2023-01-13T13:17:42;12.20;73.60
20066;DHT22;10193;48.884;9.182;2023-01-13T13:26:30;12.00;72.80
20066;DHT22;10193;48.884;9.182;2023-01-13T13:29:27;12.00;73.00
20066;DHT22;10193;48.884;9.182;2023-01-13T13:35:19;11.90;72.30
20066;DHT22;10193;48.884;9.182;2023-01-13T13:37:57;11.90;72.30
20066;DHT22;10193;48.884;9.182;2023-01-13T13:40:46;11.90;72.70
20066;DHT22;10193;48.884;9.182;2023-01-13T13:43:38;11.90;72.80
20066;DHT22;10193;48.884;9.182;2023-01-13T13:46:25;11.80;72.50
20066;DHT22;10193;48.884;9.182;2023-01-13T13:49:10;11.90;73.00
20066;DHT22;10193;48.884;9.182;2023-01-13T13:51:42;11.90;73.30
20066;DHT22;10193;48.884;9.182;2023-01-13T13:54:13;11.90;73.30
20066;DHT22;10193;48.884;9.182;2023-01-13T13:56:44;12.00;73.30
20066;DHT22;10193;48.884;9.182;2023-01-13T13:59:13;12.00;73.00
20066;DHT22;10193;48.884;9.182;2023-01-13T14:01:43;12.00;72.70
20066;DHT22;10193;48.884;9.182;2023-01-13T14:04:14;12.10;72.30
20066;DHT22;10193;48.884;9.182;2023-01-13T14:06:51;12.10;72.10
20066;DHT22;10193;48.884;9.182;2023-01-13T14:09:19;12.10;71.40
20066;DHT22;10193;48.884;9.182;2023-01-13T14:11:58;12.00;71.60
20066;DHT22;10193;48.884;9.182;2023-01-13T14:14:25;12.00;71.20
20066;DHT22;10193;48.884;9.182;2023-01-13T14:16:52;12.00;71.10
20066;DHT22;10193;48.884;9.182;2023-01-13T14:19:26;12.00;70.50
20066;DHT22;10193;48.884;9.182;2023-01-13T14:21:55;11.90;69.40
20066;DHT22;10193;48.884;9.182;2023-01-13T14:24:22;11.80;69.90
20066;DHT22;10193;48.884;9.182;2023-01-13T14:26:50;11.70;69.70
20066;DHT22;10193;48.884;9.182;2023-01-13T14:29:20;11.60;69.40
20066;DHT22;10193;48.884;9.182;2023-01-13T14:31:48;11.60;69.40
20066;DHT22;10193;48.884;9.182;2023-01-13T14:34:15;11.50;69.50
20066;DHT22;10193;48.884;9.182;2023-01-13T14:36:42;11.40;69.60
20066;DHT22;10193;48.884;9.182;2023-01-13T14:39:33;11.40;69.70
20066;DHT22;10193;48.884;9.182;2023-01-13T14:42:00;11.30;69.20
20066;DHT22;10193;48.884;9.182;2023-01-13T14:44:29;11.20;69.70
20066;DHT22;10193;48.884;9.182;2023-01-13T14:46:57;11.20;69.80
20066;DHT22;10193;48.884;9.182;2023-01-13T14:49:29;11.10;69.70
20066;DHT22;10193;48.884;9.182;2023-01-13T14:52:06;11.00;69.60
20066;DHT22;10193;48.884;9.182;2023-01-13T14:54:46;10.90;69.30
20066;DHT22;10193;48.884;9.182;2023-01-13T14:57:15;10.90;70.20
20066;DHT22;10193;48.884;9.182;2023-01-13T14:59:53;10.80;69.60
20066;DHT22;10193;48.884;9.182;2023-01-13T15:02:46;10.80;69.70
20066;DHT22;10193;48.884;9.182;2023-01-13T15:05:31;10.70;70.20
20066;DHT22;10193;48.884;9.182;2023-01-13T15:08:01;10.60;69.50
20066;DHT22;10193;48.884;9.182;2023-01-13T15:10:31;10.60;69.80
20066;DHT22;10193;48.884;9.182;2023-01-13T15:13:00;10.50;69.70
20066;DHT22;10193;48.884;9.182;2023-01-13T15:15:29;10.50;69.80
20066;DHT22;10193;48.884;9.182;2023-01-13T15:17:57;10.40;69.70
20066;DHT22;10193;48.884;9.182;2023-01-13T15:20:24;10.30;69.60
20066;DHT22;10193;48.884;9.182;2023-01-13T15:22:52;10.30;69.70
20066;DHT22;10193;48.884;9.182;2023-01-13T15:25:19;10.20;69.70
20066;DHT22;10193;48.884;9.182;2023-01-13T15:27:49;10.20;69.80
20066;DHT22;10193;48.884;9.182;2023-01-13T15:30:19;10.10;69.80
20066;DHT22;10193;48.884;9.182;2023-01-13T15:32:47;10.00;69.70
20066;DHT22;10193;48.884;9.182;2023-01-13T15:35:14;10.00;69.90
20066;DHT22;10193;48.884;9.182;2023-01-13T15:37:41;9.90;71.10
20066;DHT22;10193;48.884;9.182;2023-01-13T15:40:14;9.90;71.00
20066;DHT22;10193;48.884;9.182;2023-01-13T15:42:41;9.80;71.00
20066;DHT22;10193;48.884;9.182;2023-01-13T15:45:26;9.80;71.10
20066;DHT22;10193;48.884;9.182;2023-01-13T15:48:11;9.70;71.10
20066;DHT22;10193;48.884;9.182;2023-01-13T15:50:38;9.70;71.20
20066;DHT22;10193;48.884;9.182;2023-01-13T15:53:05;9.60;71.30
20066;DHT22;10193;48.884;9.182;2023-01-13T15:55:32;9.60;71.40
20066;DHT22;10193;48.884;9.182;2023-01-13T15:58:00;9.50;71.40
20066;DHT22;10193;48.884;9.182;2023-01-13T16:00:28;9.50;71.50
20066;DHT22;10193;48.884;9.182;2023-01-13T16:02:55;9.50;71.80
20066;DHT22;10193;48.884;9.182;2023-01-13T16:05:21;9.50;72.00
20066;DHT22;10193;48.884;9.182;2023-01-13T16:07:48;9.40;72.40
20066;DHT22;10193;48.884;9.182;2023-01-13T16:10:16;9.40;72.60
20066;DHT22;10193;48.884;9.182;2023-01-13T16:12:43;9.40;72.60
20066;DHT22;10193;48.884;9.182;2023-01-13T16:15:12;9.50;72.50
20066;DHT22;10193;48.884;9.182;2023-01-13T16:17:41;9.40;72.40
20066;DHT22;10193;48.884;9.182;2023-01-13T16:20:12;9.50;72.40
20066;DHT22;10193;48.884;9.182;2023-01-13T16:22:39;9.40;72.10